Frontier, Michigan
Current Conditions -  °F | °C
As of 10:15 AM on Thursday 18 Dec 2014 (Local Time) from KJYM Reporting Station
Overcast Overcast  
Wind Chill: 22°   Ceiling: 2400
Heat Index: 30°   Visibility: 10mi
Dew Point: 26°   Wind: 8mph
Humidity: 87%   Direction: 260°W
Pressure: 30.21"   Gusts: NA
Location:  41.78°N, 84.6°W
Report Text: KJYM 181515Z AUTO 26007KT 10SM OVC024 M01/M03 A3021 RMK AO2 T10131032
Loading
Personal Weather Stations






























Interactive Weather Map New forecast layout! Learn more

10-Day Weather Forecast

Advertisements
Track Severe Weather on mobile